Heath, Montana
Current Conditions -  °F | °C
As of 12:54 PM on Thursday 23 Oct 2014 (Local Time) from KLWT Reporting Station
Overcast Overcast  
Wind Chill: 64°   Ceiling: 12000
Heat Index: 64°   Visibility: 10mi
Dew Point: 34°   Wind: 17mph
Humidity: 33%   Direction: 260°W
Pressure: 29.86"   Gusts: NA
Location:  46.9245°N, 109.389°W
Report Text: KLWT 231854Z AUTO 26015KT 10SM OVC120 18/01 A2986 RMK AO2 SLP091 T01780011
Loading
Personal Weather Stations






























Interactive Weather Map
Tropical Storm Tracking
New forecast layout! Learn more

10-Day Weather Forecast

Advertisements
Track Severe Weather on mobile